sensor_id;sensor_type;location;lat;lon;timestamp;P1;durP1;ratioP1;P2;durP2;ratioP2
48554;SDS011;34336;48.270;16.716;2022-07-01T00:01:42;16.13;;;11.10;;
48554;SDS011;34336;48.270;16.716;2022-07-01T00:04:10;16.95;;;11.00;;
48554;SDS011;34336;48.270;16.716;2022-07-01T00:06:37;18.17;;;10.48;;
48554;SDS011;34336;48.270;16.716;2022-07-01T00:09:04;12.05;;;9.95;;
48554;SDS011;34336;48.270;16.716;2022-07-01T00:11:31;14.18;;;11.00;;
48554;SDS011;34336;48.270;16.716;2022-07-01T00:13:58;12.00;;;10.80;;
48554;SDS011;34336;48.270;16.716;2022-07-01T00:16:25;11.20;;;9.95;;
48554;SDS011;34336;48.270;16.716;2022-07-01T00:18:52;17.55;;;10.63;;
48554;SDS011;34336;48.270;16.716;2022-07-01T00:21:19;17.15;;;11.25;;
48554;SDS011;34336;48.270;16.716;2022-07-01T00:23:46;14.73;;;10.65;;
48554;SDS011;34336;48.270;16.716;2022-07-01T00:26:12;16.40;;;10.52;;
48554;SDS011;34336;48.270;16.716;2022-07-01T00:28:39;16.98;;;11.80;;
48554;SDS011;34336;48.270;16.716;2022-07-01T00:31:06;11.52;;;10.20;;
48554;SDS011;34336;48.270;16.716;2022-07-01T00:33:33;15.30;;;9.77;;
48554;SDS011;34336;48.270;16.716;2022-07-01T00:36:00;13.00;;;11.00;;
48554;SDS011;34336;48.270;16.716;2022-07-01T00:38:26;15.77;;;11.13;;
48554;SDS011;34336;48.270;16.716;2022-07-01T00:40:54;11.63;;;10.05;;
48554;SDS011;34336;48.270;16.716;2022-07-01T00:43:21;13.27;;;11.45;;
48554;SDS011;34336;48.270;16.716;2022-07-01T00:46:12;13.25;;;10.57;;
48554;SDS011;34336;48.270;16.716;2022-07-01T00:48:39;12.55;;;11.25;;
48554;SDS011;34336;48.270;16.716;2022-07-01T00:51:06;14.80;;;11.32;;
48554;SDS011;34336;48.270;16.716;2022-07-01T00:53:34;13.95;;;11.88;;
48554;SDS011;34336;48.270;16.716;2022-07-01T00:56:01;12.95;;;10.77;;
48554;SDS011;34336;48.270;16.716;2022-07-01T00:58:28;15.45;;;11.30;;
48554;SDS011;34336;48.270;16.716;2022-07-01T01:00:56;13.23;;;11.38;;
48554;SDS011;34336;48.270;16.716;2022-07-01T01:03:25;14.60;;;11.10;;
48554;SDS011;34336;48.270;16.716;2022-07-01T01:05:54;13.60;;;10.75;;
48554;SDS011;34336;48.270;16.716;2022-07-01T01:08:23;11.65;;;9.98;;
48554;SDS011;34336;48.270;16.716;2022-07-01T01:10:52;15.80;;;11.18;;
48554;SDS011;34336;48.270;16.716;2022-07-01T01:13:20;13.85;;;11.88;;
48554;SDS011;34336;48.270;16.716;2022-07-01T01:15:48;15.52;;;12.43;;
48554;SDS011;34336;48.270;16.716;2022-07-01T01:18:15;16.15;;;13.32;;
48554;SDS011;34336;48.270;16.716;2022-07-01T01:20:42;15.75;;;14.20;;
48554;SDS011;34336;48.270;16.716;2022-07-01T01:23:08;17.67;;;13.43;;
48554;SDS011;34336;48.270;16.716;2022-07-01T01:25:35;15.80;;;12.98;;
48554;SDS011;34336;48.270;16.716;2022-07-01T01:28:02;15.88;;;13.57;;
48554;SDS011;34336;48.270;16.716;2022-07-01T01:30:29;13.10;;;11.57;;
48554;SDS011;34336;48.270;16.716;2022-07-01T01:32:56;14.88;;;12.98;;
48554;SDS011;34336;48.270;16.716;2022-07-01T01:35:23;15.60;;;13.27;;
48554;SDS011;34336;48.270;16.716;2022-07-01T01:37:49;15.65;;;13.07;;
48554;SDS011;34336;48.270;16.716;2022-07-01T01:40:16;15.80;;;13.60;;
48554;SDS011;34336;48.270;16.716;2022-07-01T01:42:43;14.70;;;13.27;;
48554;SDS011;34336;48.270;16.716;2022-07-01T01:45:10;19.67;;;13.75;;
48554;SDS011;34336;48.270;16.716;2022-07-01T01:47:38;16.25;;;13.88;;
48554;SDS011;34336;48.270;16.716;2022-07-01T01:50:06;14.93;;;13.27;;
48554;SDS011;34336;48.270;16.716;2022-07-01T01:52:34;16.63;;;12.95;;
48554;SDS011;34336;48.270;16.716;2022-07-01T01:55:01;15.18;;;13.25;;
48554;SDS011;34336;48.270;16.716;2022-07-01T01:57:27;18.85;;;14.27;;
48554;SDS011;34336;48.270;16.716;2022-07-01T01:59:54;14.77;;;13.15;;
48554;SDS011;34336;48.270;16.716;2022-07-01T02:02:21;15.10;;;13.60;;
48554;SDS011;34336;48.270;16.716;2022-07-01T02:04:48;16.30;;;14.57;;
48554;SDS011;34336;48.270;16.716;2022-07-01T02:07:16;19.80;;;16.10;;
48554;SDS011;34336;48.270;16.716;2022-07-01T02:09:43;17.73;;;15.20;;
48554;SDS011;34336;48.270;16.716;2022-07-01T02:12:09;16.48;;;14.80;;
48554;SDS011;34336;48.270;16.716;2022-07-01T02:14:36;17.27;;;15.25;;
48554;SDS011;34336;48.270;16.716;2022-07-01T02:17:04;16.60;;;14.90;;
48554;SDS011;34336;48.270;16.716;2022-07-01T02:19:30;14.00;;;12.60;;
48554;SDS011;34336;48.270;16.716;2022-07-01T02:21:57;14.57;;;13.18;;
48554;SDS011;34336;48.270;16.716;2022-07-01T02:24:24;14.80;;;12.90;;
48554;SDS011;34336;48.270;16.716;2022-07-01T02:26:51;13.02;;;11.65;;
48554;SDS011;34336;48.270;16.716;2022-07-01T02:29:18;14.40;;;12.95;;
48554;SDS011;34336;48.270;16.716;2022-07-01T02:31:45;13.48;;;11.70;;
48554;SDS011;34336;48.270;16.716;2022-07-01T02:34:12;13.80;;;12.25;;
48554;SDS011;34336;48.270;16.716;2022-07-01T02:36:39;13.32;;;11.98;;
48554;SDS011;34336;48.270;16.716;2022-07-01T02:39:05;16.52;;;12.93;;
48554;SDS011;34336;48.270;16.716;2022-07-01T02:41:32;14.57;;;12.85;;
48554;SDS011;34336;48.270;16.716;2022-07-01T02:44:19;15.90;;;12.85;;
48554;SDS011;34336;48.270;16.716;2022-07-01T02:46:46;20.33;;;13.20;;
48554;SDS011;34336;48.270;16.716;2022-07-01T02:49:12;15.90;;;13.43;;
48554;SDS011;34336;48.270;16.716;2022-07-01T02:51:41;16.20;;;13.48;;
48554;SDS011;34336;48.270;16.716;2022-07-01T02:54:08;13.95;;;12.45;;
48554;SDS011;34336;48.270;16.716;2022-07-01T02:56:34;17.42;;;13.10;;
48554;SDS011;34336;48.270;16.716;2022-07-01T02:59:01;16.25;;;13.43;;
48554;SDS011;34336;48.270;16.716;2022-07-01T03:01:28;14.18;;;12.77;;
48554;SDS011;34336;48.270;16.716;2022-07-01T03:03:55;13.57;;;12.23;;
48554;SDS011;34336;48.270;16.716;2022-07-01T03:06:22;16.05;;;12.88;;
48554;SDS011;34336;48.270;16.716;2022-07-01T03:08:49;16.27;;;13.40;;
48554;SDS011;34336;48.270;16.716;2022-07-01T03:11:15;15.10;;;12.63;;
48554;SDS011;34336;48.270;16.716;2022-07-01T03:13:42;14.05;;;12.57;;
48554;SDS011;34336;48.270;16.716;2022-07-01T03:16:09;14.10;;;12.27;;
48554;SDS011;34336;48.270;16.716;2022-07-01T03:18:36;14.27;;;12.77;;
48554;SDS011;34336;48.270;16.716;2022-07-01T03:21:03;15.52;;;12.13;;
48554;SDS011;34336;48.270;16.716;2022-07-01T03:23:30;17.58;;;14.07;;
48554;SDS011;34336;48.270;16.716;2022-07-01T03:25:56;16.20;;;14.60;;
48554;SDS011;34336;48.270;16.716;2022-07-01T03:28:23;17.83;;;14.27;;
48554;SDS011;34336;48.270;16.716;2022-07-01T03:30:50;17.02;;;15.02;;
48554;SDS011;34336;48.270;16.716;2022-07-01T03:33:16;15.93;;;14.07;;
48554;SDS011;34336;48.270;16.716;2022-07-01T03:35:43;18.02;;;13.68;;
48554;SDS011;34336;48.270;16.716;2022-07-01T03:38:12;15.48;;;13.60;;
48554;SDS011;34336;48.270;16.716;2022-07-01T03:40:39;15.25;;;12.50;;
48554;SDS011;34336;48.270;16.716;2022-07-01T03:43:06;15.30;;;13.15;;
48554;SDS011;34336;48.270;16.716;2022-07-01T03:45:32;14.73;;;13.15;;
48554;SDS011;34336;48.270;16.716;2022-07-01T03:47:59;15.43;;;12.73;;
48554;SDS011;34336;48.270;16.716;2022-07-01T03:50:28;14.23;;;12.90;;
48554;SDS011;34336;48.270;16.716;2022-07-01T03:52:55;15.25;;;12.27;;
48554;SDS011;34336;48.270;16.716;2022-07-01T03:55:40;12.98;;;11.43;;
48554;SDS011;34336;48.270;16.716;2022-07-01T03:58:07;15.05;;;12.07;;
48554;SDS011;34336;48.270;16.716;2022-07-01T04:00:35;13.95;;;11.48;;
48554;SDS011;34336;48.270;16.716;2022-07-01T04:03:03;15.65;;;11.60;;
48554;SDS011;34336;48.270;16.716;2022-07-01T04:05:34;13.82;;;11.20;;
48554;SDS011;34336;48.270;16.716;2022-07-01T04:08:02;14.00;;;11.07;;
48554;SDS011;34336;48.270;16.716;2022-07-01T04:10:30;16.17;;;11.63;;
48554;SDS011;34336;48.270;16.716;2022-07-01T04:13:01;16.10;;;12.15;;
48554;SDS011;34336;48.270;16.716;2022-07-01T04:15:48;14.63;;;12.52;;
48554;SDS011;34336;48.270;16.716;2022-07-01T04:18:15;15.75;;;12.43;;
48554;SDS011;34336;48.270;16.716;2022-07-01T04:20:42;14.65;;;12.35;;
48554;SDS011;34336;48.270;16.716;2022-07-01T04:23:09;22.15;;;14.63;;
48554;SDS011;34336;48.270;16.716;2022-07-01T04:25:35;19.33;;;12.50;;
48554;SDS011;34336;48.270;16.716;2022-07-01T04:28:02;16.85;;;12.57;;
48554;SDS011;34336;48.270;16.716;2022-07-01T04:30:30;17.13;;;12.93;;
48554;SDS011;34336;48.270;16.716;2022-07-01T04:32:56;15.75;;;12.85;;
48554;SDS011;34336;48.270;16.716;2022-07-01T04:35:23;18.73;;;13.27;;
48554;SDS011;34336;48.270;16.716;2022-07-01T04:37:50;12.90;;;11.60;;
48554;SDS011;34336;48.270;16.716;2022-07-01T04:40:17;16.45;;;12.50;;
48554;SDS011;34336;48.270;16.716;2022-07-01T04:42:44;13.90;;;12.27;;
48554;SDS011;34336;48.270;16.716;2022-07-01T04:45:11;14.05;;;11.70;;
48554;SDS011;34336;48.270;16.716;2022-07-01T04:47:37;18.42;;;12.05;;
48554;SDS011;34336;48.270;16.716;2022-07-01T04:50:04;18.08;;;11.30;;
48554;SDS011;34336;48.270;16.716;2022-07-01T04:52:31;15.50;;;11.38;;
48554;SDS011;34336;48.270;16.716;2022-07-01T04:54:58;13.88;;;10.93;;
48554;SDS011;34336;48.270;16.716;2022-07-01T04:57:32;15.15;;;10.40;;
48554;SDS011;34336;48.270;16.716;2022-07-01T04:59:59;14.70;;;10.05;;
48554;SDS011;34336;48.270;16.716;2022-07-01T05:02:25;12.88;;;10.98;;
48554;SDS011;34336;48.270;16.716;2022-07-01T05:04:52;12.52;;;11.13;;
48554;SDS011;34336;48.270;16.716;2022-07-01T05:07:20;11.63;;;9.93;;
48554;SDS011;34336;48.270;16.716;2022-07-01T05:09:56;12.18;;;10.35;;
48554;SDS011;34336;48.270;16.716;2022-07-01T05:12:25;10.90;;;9.15;;
48554;SDS011;34336;48.270;16.716;2022-07-01T05:14:52;13.52;;;9.73;;
48554;SDS011;34336;48.270;16.716;2022-07-01T05:17:19;10.75;;;8.93;;
48554;SDS011;34336;48.270;16.716;2022-07-01T05:19:46;10.60;;;8.00;;
48554;SDS011;34336;48.270;16.716;2022-07-01T05:22:47;8.23;;;7.18;;
48554;SDS011;34336;48.270;16.716;2022-07-01T05:25:14;8.50;;;6.35;;
48554;SDS011;34336;48.270;16.716;2022-07-01T05:27:41;8.25;;;7.32;;
48554;SDS011;34336;48.270;16.716;2022-07-01T05:30:07;8.50;;;7.18;;
48554;SDS011;34336;48.270;16.716;2022-07-01T05:32:35;12.85;;;7.13;;
48554;SDS011;34336;48.270;16.716;2022-07-01T05:35:01;11.07;;;7.10;;
48554;SDS011;34336;48.270;16.716;2022-07-01T05:37:28;9.88;;;6.80;;
48554;SDS011;34336;48.270;16.716;2022-07-01T05:39:55;10.23;;;7.22;;
48554;SDS011;34336;48.270;16.716;2022-07-01T05:42:22;10.65;;;6.97;;
48554;SDS011;34336;48.270;16.716;2022-07-01T05:44:49;11.23;;;6.30;;
48554;SDS011;34336;48.270;16.716;2022-07-01T05:47:15;12.55;;;6.45;;
48554;SDS011;34336;48.270;16.716;2022-07-01T05:49:42;9.05;;;6.78;;
48554;SDS011;34336;48.270;16.716;2022-07-01T05:52:09;11.30;;;9.15;;
48554;SDS011;34336;48.270;16.716;2022-07-01T05:54:35;12.38;;;8.00;;
48554;SDS011;34336;48.270;16.716;2022-07-01T05:57:03;11.30;;;6.63;;
48554;SDS011;34336;48.270;16.716;2022-07-01T05:59:34;7.10;;;5.55;;
48554;SDS011;34336;48.270;16.716;2022-07-01T06:02:02;10.23;;;5.63;;
48554;SDS011;34336;48.270;16.716;2022-07-01T06:04:29;6.50;;;4.05;;
48554;SDS011;34336;48.270;16.716;2022-07-01T06:06:55;6.75;;;4.00;;
48554;SDS011;34336;48.270;16.716;2022-07-01T06:09:22;4.60;;;3.03;;
48554;SDS011;34336;48.270;16.716;2022-07-01T06:11:49;3.88;;;2.45;;
48554;SDS011;34336;48.270;16.716;2022-07-01T06:14:16;6.90;;;2.10;;
48554;SDS011;34336;48.270;16.716;2022-07-01T06:16:42;4.18;;;1.80;;
48554;SDS011;34336;48.270;16.716;2022-07-01T06:19:09;3.53;;;1.77;;
48554;SDS011;34336;48.270;16.716;2022-07-01T06:21:36;3.25;;;1.40;;
48554;SDS011;34336;48.270;16.716;2022-07-01T06:24:03;3.55;;;1.50;;
48554;SDS011;34336;48.270;16.716;2022-07-01T06:26:30;2.95;;;1.08;;
48554;SDS011;34336;48.270;16.716;2022-07-01T06:28:56;4.70;;;1.40;;
48554;SDS011;34336;48.270;16.716;2022-07-01T06:31:23;3.63;;;1.20;;
48554;SDS011;34336;48.270;16.716;2022-07-01T06:33:50;4.65;;;1.52;;
48554;SDS011;34336;48.270;16.716;2022-07-01T06:36:17;7.47;;;1.88;;
48554;SDS011;34336;48.270;16.716;2022-07-01T06:38:44;4.53;;;1.60;;
48554;SDS011;34336;48.270;16.716;2022-07-01T06:41:11;5.65;;;1.52;;
48554;SDS011;34336;48.270;16.716;2022-07-01T06:43:56;4.57;;;1.80;;
48554;SDS011;34336;48.270;16.716;2022-07-01T06:46:25;4.85;;;1.23;;
48554;SDS011;34336;48.270;16.716;2022-07-01T06:48:52;3.90;;;1.50;;
48554;SDS011;34336;48.270;16.716;2022-07-01T06:51:20;4.40;;;1.10;;
48554;SDS011;34336;48.270;16.716;2022-07-01T06:53:47;5.47;;;1.60;;
48554;SDS011;34336;48.270;16.716;2022-07-01T06:56:13;5.70;;;1.42;;
48554;SDS011;34336;48.270;16.716;2022-07-01T06:58:40;4.45;;;1.30;;
48554;SDS011;34336;48.270;16.716;2022-07-01T07:01:07;9.57;;;1.65;;
48554;SDS011;34336;48.270;16.716;2022-07-01T07:03:34;7.85;;;1.58;;
48554;SDS011;34336;48.270;16.716;2022-07-01T07:06:02;7.57;;;1.50;;
48554;SDS011;34336;48.270;16.716;2022-07-01T07:08:29;6.25;;;1.52;;
48554;SDS011;34336;48.270;16.716;2022-07-01T07:10:57;5.88;;;1.30;;
48554;SDS011;34336;48.270;16.716;2022-07-01T07:13:25;5.88;;;1.60;;
48554;SDS011;34336;48.270;16.716;2022-07-01T07:15:52;5.43;;;1.80;;
48554;SDS011;34336;48.270;16.716;2022-07-01T07:18:18;4.50;;;1.50;;
48554;SDS011;34336;48.270;16.716;2022-07-01T07:20:45;5.65;;;1.65;;
48554;SDS011;34336;48.270;16.716;2022-07-01T07:23:13;5.72;;;1.60;;
48554;SDS011;34336;48.270;16.716;2022-07-01T07:25:40;6.10;;;1.83;;
48554;SDS011;34336;48.270;16.716;2022-07-01T07:28:07;6.45;;;2.00;;
48554;SDS011;34336;48.270;16.716;2022-07-01T07:30:34;7.28;;;1.92;;
48554;SDS011;34336;48.270;16.716;2022-07-01T07:33:01;2.83;;;1.73;;
48554;SDS011;34336;48.270;16.716;2022-07-01T07:35:28;5.22;;;2.10;;
48554;SDS011;34336;48.270;16.716;2022-07-01T07:37:55;5.28;;;1.70;;
48554;SDS011;34336;48.270;16.716;2022-07-01T07:40:22;2.78;;;2.00;;
48554;SDS011;34336;48.270;16.716;2022-07-01T07:42:49;7.05;;;2.50;;
48554;SDS011;34336;48.270;16.716;2022-07-01T07:45:16;6.13;;;2.53;;
48554;SDS011;34336;48.270;16.716;2022-07-01T07:47:47;3.22;;;2.25;;
48554;SDS011;34336;48.270;16.716;2022-07-01T07:50:15;4.85;;;2.30;;
48554;SDS011;34336;48.270;16.716;2022-07-01T07:52:42;7.50;;;2.40;;
48554;SDS011;34336;48.270;16.716;2022-07-01T07:55:09;4.40;;;2.53;;
48554;SDS011;34336;48.270;16.716;2022-07-01T07:57:37;6.30;;;2.70;;
48554;SDS011;34336;48.270;16.716;2022-07-01T08:00:05;6.30;;;2.88;;
48554;SDS011;34336;48.270;16.716;2022-07-01T08:02:37;2.75;;;2.10;;
48554;SDS011;34336;48.270;16.716;2022-07-01T08:05:04;5.20;;;2.95;;
48554;SDS011;34336;48.270;16.716;2022-07-01T08:07:35;5.43;;;2.70;;
48554;SDS011;34336;48.270;16.716;2022-07-01T08:10:07;7.30;;;2.65;;
48554;SDS011;34336;48.270;16.716;2022-07-01T08:12:35;6.70;;;2.80;;
48554;SDS011;34336;48.270;16.716;2022-07-01T08:15:03;5.75;;;3.22;;
48554;SDS011;34336;48.270;16.716;2022-07-01T08:17:30;5.38;;;2.97;;
48554;SDS011;34336;48.270;16.716;2022-07-01T08:19:57;6.55;;;2.80;;
48554;SDS011;34336;48.270;16.716;2022-07-01T08:22:24;6.05;;;2.80;;
48554;SDS011;34336;48.270;16.716;2022-07-01T08:24:51;8.77;;;3.10;;
48554;SDS011;34336;48.270;16.716;2022-07-01T08:27:17;5.97;;;2.95;;
48554;SDS011;34336;48.270;16.716;2022-07-01T08:29:44;7.35;;;3.80;;
48554;SDS011;34336;48.270;16.716;2022-07-01T08:32:11;7.10;;;3.20;;
48554;SDS011;34336;48.270;16.716;2022-07-01T08:34:38;6.78;;;4.13;;
48554;SDS011;34336;48.270;16.716;2022-07-01T08:37:05;9.15;;;3.53;;
48554;SDS011;34336;48.270;16.716;2022-07-01T08:39:32;4.03;;;3.22;;
48554;SDS011;34336;48.270;16.716;2022-07-01T08:41:59;8.30;;;3.20;;
48554;SDS011;34336;48.270;16.716;2022-07-01T08:44:26;8.50;;;3.28;;
48554;SDS011;34336;48.270;16.716;2022-07-01T08:46:53;5.97;;;2.97;;
48554;SDS011;34336;48.270;16.716;2022-07-01T08:49:20;6.97;;;3.25;;
48554;SDS011;34336;48.270;16.716;2022-07-01T08:51:47;9.00;;;3.85;;
48554;SDS011;34336;48.270;16.716;2022-07-01T08:54:14;7.57;;;4.63;;
48554;SDS011;34336;48.270;16.716;2022-07-01T08:56:41;5.60;;;4.22;;
48554;SDS011;34336;48.270;16.716;2022-07-01T08:59:08;5.50;;;3.42;;
48554;SDS011;34336;48.270;16.716;2022-07-01T09:01:37;5.95;;;2.90;;
48554;SDS011;34336;48.270;16.716;2022-07-01T09:06:40;4.40;;;3.15;;
48554;SDS011;34336;48.270;16.716;2022-07-01T09:09:11;6.03;;;3.90;;
48554;SDS011;34336;48.270;16.716;2022-07-01T09:11:43;5.95;;;3.53;;
48554;SDS011;34336;48.270;16.716;2022-07-01T09:14:12;5.10;;;3.47;;
48554;SDS011;34336;48.270;16.716;2022-07-01T09:16:42;6.22;;;3.22;;
48554;SDS011;34336;48.270;16.716;2022-07-01T09:19:13;7.47;;;3.08;;
48554;SDS011;34336;48.270;16.716;2022-07-01T09:21:40;4.80;;;3.60;;
48554;SDS011;34336;48.270;16.716;2022-07-01T09:27:04;4.05;;;3.05;;
48554;SDS011;34336;48.270;16.716;2022-07-01T09:29:45;5.63;;;3.40;;
48554;SDS011;34336;48.270;16.716;2022-07-01T09:32:16;5.75;;;3.35;;
48554;SDS011;34336;48.270;16.716;2022-07-01T09:34:45;5.63;;;4.07;;
48554;SDS011;34336;48.270;16.716;2022-07-01T09:42:15;5.38;;;3.60;;
48554;SDS011;34336;48.270;16.716;2022-07-01T09:50:39;4.88;;;2.95;;
48554;SDS011;34336;48.270;16.716;2022-07-01T09:53:06;6.25;;;3.30;;
48554;SDS011;34336;48.270;16.716;2022-07-01T09:55:42;6.00;;;3.35;;
48554;SDS011;34336;48.270;16.716;2022-07-01T09:58:09;8.50;;;3.35;;
48554;SDS011;34336;48.270;16.716;2022-07-01T10:00:37;6.70;;;3.47;;
48554;SDS011;34336;48.270;16.716;2022-07-01T10:03:04;4.93;;;2.95;;
48554;SDS011;34336;48.270;16.716;2022-07-01T10:05:35;6.20;;;3.53;;
48554;SDS011;34336;48.270;16.716;2022-07-01T10:14:15;5.63;;;3.38;;
48554;SDS011;34336;48.270;16.716;2022-07-01T10:16:46;5.53;;;3.17;;
48554;SDS011;34336;48.270;16.716;2022-07-01T10:22:01;8.63;;;4.68;;
48554;SDS011;34336;48.270;16.716;2022-07-01T10:24:47;6.43;;;3.47;;
48554;SDS011;34336;48.270;16.716;2022-07-01T10:27:21;5.65;;;3.35;;
48554;SDS011;34336;48.270;16.716;2022-07-01T10:32:47;4.80;;;3.25;;
48554;SDS011;34336;48.270;16.716;2022-07-01T10:35:35;5.40;;;3.03;;
48554;SDS011;34336;48.270;16.716;2022-07-01T10:38:03;4.75;;;3.10;;
48554;SDS011;34336;48.270;16.716;2022-07-01T10:40:43;5.18;;;3.30;;
48554;SDS011;34336;48.270;16.716;2022-07-01T10:43:16;5.70;;;3.38;;
48554;SDS011;34336;48.270;16.716;2022-07-01T10:45:58;5.15;;;3.40;;
48554;SDS011;34336;48.270;16.716;2022-07-01T10:48:25;4.70;;;3.05;;
48554;SDS011;34336;48.270;16.716;2022-07-01T10:50:52;4.22;;;2.92;;
48554;SDS011;34336;48.270;16.716;2022-07-01T10:53:19;8.45;;;3.40;;
48554;SDS011;34336;48.270;16.716;2022-07-01T10:55:47;6.40;;;2.70;;
48554;SDS011;34336;48.270;16.716;2022-07-01T10:58:36;4.20;;;3.10;;
48554;SDS011;34336;48.270;16.716;2022-07-01T11:01:04;6.05;;;4.13;;
48554;SDS011;34336;48.270;16.716;2022-07-01T11:03:35;8.18;;;3.80;;
48554;SDS011;34336;48.270;16.716;2022-07-01T11:06:05;4.80;;;3.30;;
48554;SDS011;34336;48.270;16.716;2022-07-01T11:08:33;7.22;;;3.40;;
48554;SDS011;34336;48.270;16.716;2022-07-01T11:11:01;7.55;;;3.72;;
48554;SDS011;34336;48.270;16.716;2022-07-01T11:13:30;4.18;;;3.78;;
48554;SDS011;34336;48.270;16.716;2022-07-01T11:15:58;5.22;;;3.60;;
48554;SDS011;34336;48.270;16.716;2022-07-01T11:18:26;4.40;;;3.30;;
48554;SDS011;34336;48.270;16.716;2022-07-01T11:21:02;7.18;;;3.55;;
48554;SDS011;34336;48.270;16.716;2022-07-01T11:23:30;6.13;;;3.78;;
48554;SDS011;34336;48.270;16.716;2022-07-01T11:26:03;5.88;;;3.83;;
48554;SDS011;34336;48.270;16.716;2022-07-01T11:28:30;6.20;;;3.47;;
48554;SDS011;34336;48.270;16.716;2022-07-01T11:30:58;6.55;;;3.50;;
48554;SDS011;34336;48.270;16.716;2022-07-01T11:33:26;5.72;;;4.00;;
48554;SDS011;34336;48.270;16.716;2022-07-01T11:35:53;4.82;;;3.50;;
48554;SDS011;34336;48.270;16.716;2022-07-01T11:38:38;6.80;;;3.60;;
48554;SDS011;34336;48.270;16.716;2022-07-01T11:41:24;9.15;;;3.92;;
48554;SDS011;34336;48.270;16.716;2022-07-01T11:43:52;6.28;;;3.95;;
48554;SDS011;34336;48.270;16.716;2022-07-01T11:46:19;5.63;;;3.67;;
48554;SDS011;34336;48.270;16.716;2022-07-01T11:48:48;4.20;;;3.80;;
48554;SDS011;34336;48.270;16.716;2022-07-01T11:51:23;8.90;;;4.25;;
48554;SDS011;34336;48.270;16.716;2022-07-01T11:53:51;4.32;;;3.72;;
48554;SDS011;34336;48.270;16.716;2022-07-01T11:56:28;5.82;;;3.95;;
48554;SDS011;34336;48.270;16.716;2022-07-01T11:59:00;6.40;;;3.75;;
48554;SDS011;34336;48.270;16.716;2022-07-01T12:01:29;4.70;;;3.50;;
48554;SDS011;34336;48.270;16.716;2022-07-01T12:04:06;6.00;;;3.47;;
48554;SDS011;34336;48.270;16.716;2022-07-01T12:06:35;8.55;;;4.38;;
48554;SDS011;34336;48.270;16.716;2022-07-01T12:09:14;4.90;;;3.90;;
48554;SDS011;34336;48.270;16.716;2022-07-01T12:11:44;4.65;;;4.00;;
48554;SDS011;34336;48.270;16.716;2022-07-01T12:14:34;5.03;;;3.92;;
48554;SDS011;34336;48.270;16.716;2022-07-01T12:17:04;6.63;;;3.88;;
48554;SDS011;34336;48.270;16.716;2022-07-01T12:19:38;4.43;;;3.40;;
48554;SDS011;34336;48.270;16.716;2022-07-01T12:22:08;5.22;;;4.00;;
48554;SDS011;34336;48.270;16.716;2022-07-01T12:24:40;8.18;;;3.95;;
48554;SDS011;34336;48.270;16.716;2022-07-01T12:27:08;6.40;;;4.13;;
48554;SDS011;34336;48.270;16.716;2022-07-01T12:32:13;6.05;;;4.20;;
48554;SDS011;34336;48.270;16.716;2022-07-01T12:34:42;6.53;;;4.50;;
48554;SDS011;34336;48.270;16.716;2022-07-01T12:37:16;10.68;;;6.90;;
48554;SDS011;34336;48.270;16.716;2022-07-01T12:39:53;13.82;;;10.02;;
48554;SDS011;34336;48.270;16.716;2022-07-01T12:44:55;8.45;;;6.65;;
48554;SDS011;34336;48.270;16.716;2022-07-01T12:47:27;7.47;;;4.95;;
48554;SDS011;34336;48.270;16.716;2022-07-01T12:55:35;5.88;;;4.35;;
48554;SDS011;34336;48.270;16.716;2022-07-01T12:58:12;5.75;;;4.70;;
48554;SDS011;34336;48.270;16.716;2022-07-01T13:00:42;6.88;;;4.60;;
48554;SDS011;34336;48.270;16.716;2022-07-01T13:03:10;7.57;;;6.75;;
48554;SDS011;34336;48.270;16.716;2022-07-01T13:05:38;5.70;;;5.10;;
48554;SDS011;34336;48.270;16.716;2022-07-01T13:08:06;7.53;;;4.63;;
48554;SDS011;34336;48.270;16.716;2022-07-01T13:10:37;5.45;;;4.65;;
48554;SDS011;34336;48.270;16.716;2022-07-01T13:13:04;4.80;;;4.30;;
48554;SDS011;34336;48.270;16.716;2022-07-01T13:15:31;5.72;;;4.45;;
48554;SDS011;34336;48.270;16.716;2022-07-01T13:17:59;7.40;;;4.80;;
48554;SDS011;34336;48.270;16.716;2022-07-01T13:20:26;6.95;;;4.32;;
48554;SDS011;34336;48.270;16.716;2022-07-01T13:22:53;5.05;;;4.05;;
48554;SDS011;34336;48.270;16.716;2022-07-01T13:25:20;6.47;;;4.63;;
48554;SDS011;34336;48.270;16.716;2022-07-01T13:27:48;6.82;;;4.65;;
48554;SDS011;34336;48.270;16.716;2022-07-01T13:30:18;8.82;;;4.50;;
48554;SDS011;34336;48.270;16.716;2022-07-01T13:32:45;5.63;;;4.40;;
48554;SDS011;34336;48.270;16.716;2022-07-01T13:35:12;6.88;;;4.53;;
48554;SDS011;34336;48.270;16.716;2022-07-01T13:37:40;5.22;;;4.22;;
48554;SDS011;34336;48.270;16.716;2022-07-01T13:40:07;6.00;;;4.70;;
48554;SDS011;34336;48.270;16.716;2022-07-01T13:42:36;7.47;;;4.60;;
48554;SDS011;34336;48.270;16.716;2022-07-01T13:45:03;6.55;;;4.78;;
48554;SDS011;34336;48.270;16.716;2022-07-01T13:47:30;5.95;;;4.40;;
48554;SDS011;34336;48.270;16.716;2022-07-01T13:49:58;8.43;;;4.60;;
48554;SDS011;34336;48.270;16.716;2022-07-01T13:52:25;6.95;;;4.72;;
48554;SDS011;34336;48.270;16.716;2022-07-01T13:54:55;8.70;;;4.68;;
48554;SDS011;34336;48.270;16.716;2022-07-01T13:57:22;6.35;;;4.25;;
48554;SDS011;34336;48.270;16.716;2022-07-01T13:59:49;7.15;;;4.88;;
48554;SDS011;34336;48.270;16.716;2022-07-01T14:02:16;6.30;;;4.50;;
48554;SDS011;34336;48.270;16.716;2022-07-01T14:04:45;5.40;;;4.55;;
48554;SDS011;34336;48.270;16.716;2022-07-01T14:07:13;5.38;;;4.60;;
48554;SDS011;34336;48.270;16.716;2022-07-01T14:09:40;5.18;;;4.07;;
48554;SDS011;34336;48.270;16.716;2022-07-01T14:12:10;6.60;;;4.80;;
48554;SDS011;34336;48.270;16.716;2022-07-01T14:14:43;6.35;;;4.55;;
48554;SDS011;34336;48.270;16.716;2022-07-01T14:17:09;5.50;;;4.55;;
48554;SDS011;34336;48.270;16.716;2022-07-01T14:19:36;6.50;;;4.43;;
48554;SDS011;34336;48.270;16.716;2022-07-01T14:22:03;5.85;;;4.38;;
48554;SDS011;34336;48.270;16.716;2022-07-01T14:24:30;7.55;;;4.47;;
48554;SDS011;34336;48.270;16.716;2022-07-01T14:26:57;6.15;;;4.13;;
48554;SDS011;34336;48.270;16.716;2022-07-01T14:29:24;4.22;;;3.53;;
48554;SDS011;34336;48.270;16.716;2022-07-01T14:31:51;5.95;;;3.90;;
48554;SDS011;34336;48.270;16.716;2022-07-01T14:34:18;5.65;;;3.50;;
48554;SDS011;34336;48.270;16.716;2022-07-01T14:36:44;5.60;;;3.55;;
48554;SDS011;34336;48.270;16.716;2022-07-01T14:39:11;5.50;;;3.22;;
48554;SDS011;34336;48.270;16.716;2022-07-01T14:41:38;7.40;;;3.85;;
48554;SDS011;34336;48.270;16.716;2022-07-01T14:44:05;6.93;;;4.05;;
48554;SDS011;34336;48.270;16.716;2022-07-01T14:46:32;5.53;;;3.70;;
48554;SDS011;34336;48.270;16.716;2022-07-01T14:48:59;4.22;;;3.80;;
48554;SDS011;34336;48.270;16.716;2022-07-01T14:51:26;9.73;;;7.85;;
48554;SDS011;34336;48.270;16.716;2022-07-01T14:53:53;9.52;;;7.28;;
48554;SDS011;34336;48.270;16.716;2022-07-01T14:56:23;11.43;;;6.82;;
48554;SDS011;34336;48.270;16.716;2022-07-01T14:58:49;5.32;;;3.78;;
48554;SDS011;34336;48.270;16.716;2022-07-01T15:01:16;5.50;;;3.70;;
48554;SDS011;34336;48.270;16.716;2022-07-01T15:03:44;7.20;;;4.00;;
48554;SDS011;34336;48.270;16.716;2022-07-01T15:06:11;5.38;;;4.43;;
48554;SDS011;34336;48.270;16.716;2022-07-01T15:08:38;7.20;;;4.28;;
48554;SDS011;34336;48.270;16.716;2022-07-01T15:11:06;6.47;;;4.43;;
48554;SDS011;34336;48.270;16.716;2022-07-01T15:13:33;8.80;;;4.40;;